Time;durP1;ratioP1;P1;durP2;ratioP2;P2;SDS_P1;SDS_P2;PMS_P1;PMS_P2;Temp;Humidity;BMP_temperature;BMP_pressure;BME280_temperature;BME280_humidity;BME280_pressure;Samples;Min_cycle;Max_cycle;Signal;HPM_P1;HPM_P2
2022/01/01 00:01:35;;;;;;;5.63;4.70;;;11.10;99.50;;;;;;4977827;28;20030;-64
2022/01/01 00:04:07;;;;;;;4.78;3.90;;;11.10;99.60;;;;;;4975437;28;20153;-63
2022/01/01 00:06:32;;;;;;;6.27;4.80;;;11.10;99.70;;;;;;4973051;28;20050;-63
2022/01/01 00:08:58;;;;;;;5.95;5.05;;;11.20;99.60;;;;;;4975551;28;20760;-64
2022/01/01 00:11:23;;;;;;;7.28;4.57;;;11.20;99.40;;;;;;4979668;28;20504;-64
2022/01/01 00:13:49;;;;;;;5.03;4.20;;;11.20;99.20;;;;;;4981185;28;20110;-64
2022/01/01 00:16:15;;;;;;;5.03;3.90;;;11.30;99.30;;;;;;4981321;28;20034;-64
2022/01/01 00:18:40;;;;;;;2.88;1.92;;;11.30;99.10;;;;;;4975301;28;20031;-64
2022/01/01 00:21:06;;;;;;;3.88;3.42;;;11.30;99.90;;;;;;4972156;28;20058;-64
2022/01/01 00:23:33;;;;;;;4.63;4.13;;;11.40;99.70;;;;;;4972994;28;20117;-62
2022/01/01 00:25:59;;;;;;;7.25;5.57;;;11.40;99.30;;;;;;4979306;28;20117;-64
2022/01/01 00:28:25;;;;;;;7.50;5.85;;;11.30;99.10;;;;;;4979419;28;20569;-63
2022/01/01 00:30:50;;;;;;;7.28;6.13;;;11.30;99.20;;;;;;4976664;28;20413;-63
2022/01/01 00:33:16;;;;;;;7.75;5.88;;;11.20;99.30;;;;;;4977485;28;20082;-63
2022/01/01 00:35:42;;;;;;;8.82;6.53;;;11.10;99.50;;;;;;4976795;28;20516;-63
2022/01/01 00:38:08;;;;;;;7.72;6.05;;;10.90;99.70;;;;;;4976278;28;20109;-64
2022/01/01 00:40:34;;;;;;;7.18;5.63;;;10.90;99.90;;;;;;4975400;28;20031;-64
2022/01/01 00:43:03;;;;;;;7.68;6.00;;;10.80;99.90;;;;;;4973939;28;20039;-64
2022/01/01 00:45:31;;;;;;;6.30;5.18;;;10.80;99.90;;;;;;4976470;28;20105;-64
2022/01/01 00:47:57;;;;;;;7.82;6.00;;;10.70;99.90;;;;;;4972300;28;20516;-64
2022/01/01 00:50:22;;;;;;;8.10;6.10;;;10.70;99.90;;;;;;4969522;28;20065;-64
2022/01/01 00:52:50;;;;;;;8.52;5.78;;;10.70;99.90;;;;;;4970480;28;20424;-63
2022/01/01 00:55:15;;;;;;;5.32;4.32;;;10.70;99.90;;;;;;4971850;28;20034;-63
2022/01/01 00:57:41;;;;;;;5.43;4.07;;;10.70;99.90;;;;;;4976073;28;20035;-63
2022/01/01 01:00:08;;;;;;;7.50;4.97;;;10.60;99.90;;;;;;4974037;28;20058;-63
2022/01/01 01:02:33;;;;;;;5.18;4.32;;;10.60;99.90;;;;;;4974130;28;20023;-63
2022/01/01 01:04:59;;;;;;;5.35;4.45;;;10.70;99.90;;;;;;4971517;28;20088;-64
2022/01/01 01:07:25;;;;;;;8.40;6.50;;;10.80;99.90;;;;;;4968688;28;20039;-63
2022/01/01 01:09:50;;;;;;;2.88;1.95;;;10.90;99.90;;;;;;4971816;28;22125;-64
2022/01/01 01:12:22;;;;;;;1.35;0.95;;;11.10;99.90;;;;;;4970154;28;20397;-63
2022/01/01 01:14:52;;;;;;;1.30;1.00;;;11.40;99.40;;;;;;4969387;28;20417;-62
2022/01/01 01:17:18;;;;;;;1.33;0.90;;;11.80;98.60;;;;;;4985565;28;20042;-63
2022/01/01 01:19:43;;;;;;;1.20;1.00;;;12.00;98.20;;;;;;4979085;28;20031;-64
2022/01/01 01:22:09;;;;;;;1.58;1.05;;;12.20;97.90;;;;;;4973495;28;20084;-63
2022/01/01 01:24:35;;;;;;;1.88;1.13;;;12.30;97.50;;;;;;4969977;28;20478;-63
2022/01/01 01:27:03;;;;;;;1.70;0.98;;;12.50;97.30;;;;;;4971102;28;20034;-63
2022/01/01 01:29:31;;;;;;;1.30;1.20;;;12.60;96.90;;;;;;5002217;28;20413;-64
2022/01/01 01:31:56;;;;;;;1.17;1.00;;;12.70;96.90;;;;;;4974023;28;20027;-63
2022/01/01 01:34:22;;;;;;;1.73;1.25;;;12.70;96.90;;;;;;4976002;28;20093;-63
2022/01/01 01:36:48;;;;;;;1.27;1.00;;;12.80;97.00;;;;;;4977826;28;20037;-63
2022/01/01 01:39:13;;;;;;;1.77;1.55;;;12.80;97.20;;;;;;4978507;28;20037;-64
2022/01/01 01:41:42;;;;;;;2.60;1.48;;;12.80;97.00;;;;;;4979220;28;20034;-64
2022/01/01 01:44:30;;;;;;;2.13;1.50;;;12.80;96.90;;;;;;4978047;28;20093;-63
2022/01/01 01:46:56;;;;;;;1.67;1.58;;;12.90;96.90;;;;;;4974289;28;20424;-64
2022/01/01 01:49:22;;;;;;;2.30;1.65;;;12.90;96.90;;;;;;4976118;28;20080;-63
2022/01/01 01:51:48;;;;;;;2.50;1.50;;;12.80;96.80;;;;;;4974367;28;20121;-64
2022/01/01 01:54:14;;;;;;;2.95;1.60;;;12.80;97.00;;;;;;4977988;28;20030;-63
2022/01/01 01:56:40;;;;;;;2.03;1.83;;;12.70;97.00;;;;;;4976031;28;20117;-64
2022/01/01 01:59:06;;;;;;;2.33;1.55;;;12.80;97.10;;;;;;4975162;28;20042;-64
2022/01/01 02:01:31;;;;;;;2.30;2.08;;;12.80;97.20;;;;;;4977476;28;20045;-64
2022/01/01 02:03:58;;;;;;;2.60;2.03;;;12.70;97.30;;;;;;4981960;28;20052;-64
2022/01/01 02:06:24;;;;;;;3.03;2.10;;;12.70;97.30;;;;;;4979075;28;20031;-63
2022/01/01 02:08:52;;;;;;;3.22;2.03;;;12.70;97.50;;;;;;4979724;28;20154;-63
2022/01/01 02:11:20;;;;;;;2.22;2.00;;;12.60;97.50;;;;;;4977578;28;20172;-63
2022/01/01 02:18:48;;;;;;;2.67;2.40;;;12.50;98.00;;;;;;4984503;28;20043;-63
2022/01/01 02:21:14;;;;;;;2.95;2.05;;;12.40;98.10;;;;;;4981146;28;20033;-63
2022/01/01 02:23:45;;;;;;;3.13;2.47;;;12.40;98.20;;;;;;4980722;28;20027;-64
2022/01/01 02:26:13;;;;;;;5.30;2.70;;;12.40;98.40;;;;;;4982355;28;20054;-64
2022/01/01 02:28:44;;;;;;;3.65;2.30;;;12.40;98.70;;;;;;4979946;28;20066;-64
2022/01/01 02:31:09;;;;;;;5.82;3.08;;;12.40;98.70;;;;;;4981478;28;20022;-64
2022/01/01 02:33:37;;;;;;;4.28;2.90;;;12.40;98.80;;;;;;4979594;28;20027;-64
2022/01/01 02:36:04;;;;;;;4.50;2.83;;;12.40;99.10;;;;;;4983116;28;20030;-64
2022/01/01 02:38:35;;;;;;;3.20;2.58;;;12.30;99.20;;;;;;4987921;28;20552;-64
2022/01/01 02:41:01;;;;;;;3.72;2.72;;;12.30;99.40;;;;;;4979948;28;20773;-64
2022/01/01 02:43:27;;;;;;;3.58;2.75;;;12.30;99.60;;;;;;4984344;28;20035;-64
2022/01/01 02:45:53;;;;;;;4.15;3.10;;;12.30;99.70;;;;;;4981586;28;20028;-64
2022/01/01 02:48:20;;;;;;;4.10;3.22;;;12.30;99.90;;;;;;4979220;28;20038;-64
2022/01/01 02:50:46;;;;;;;5.55;3.53;;;12.30;99.90;;;;;;4979665;28;20492;-64
2022/01/01 02:53:16;;;;;;;4.57;3.17;;;12.30;99.90;;;;;;4981394;28;20026;-64
2022/01/01 02:55:45;;;;;;;6.20;3.30;;;12.20;99.90;;;;;;4980034;28;20031;-64
2022/01/01 02:58:12;;;;;;;2.83;2.58;;;12.20;99.90;;;;;;4983055;28;20097;-63
2022/01/01 03:00:39;;;;;;;3.30;2.90;;;12.20;99.90;;;;;;4978436;28;20100;-64
2022/01/01 03:03:05;;;;;;;3.35;2.92;;;12.20;99.90;;;;;;4979104;28;20026;-64
2022/01/01 03:05:31;;;;;;;4.72;3.50;;;12.20;99.90;;;;;;4981313;28;20130;-64
2022/01/01 03:07:57;;;;;;;4.38;3.03;;;12.20;99.90;;;;;;4981215;28;20038;-64
2022/01/01 03:10:24;;;;;;;3.40;2.88;;;12.20;99.90;;;;;;4978164;28;20026;-64
2022/01/01 03:12:50;;;;;;;3.00;2.65;;;12.20;99.90;;;;;;4983375;28;20038;-64
2022/01/01 03:15:15;;;;;;;3.15;2.70;;;12.30;99.90;;;;;;4981117;28;20034;-64
2022/01/01 03:17:41;;;;;;;4.22;2.95;;;12.30;99.90;;;;;;4979882;28;20488;-64
2022/01/01 03:20:09;;;;;;;3.92;3.03;;;12.40;99.80;;;;;;4976573;28;20035;-64
2022/01/01 03:22:34;;;;;;;4.15;2.53;;;12.40;99.70;;;;;;4975501;28;20022;-64
2022/01/01 03:25:00;;;;;;;3.03;2.70;;;12.50;99.70;;;;;;4976925;28;20034;-64
2022/01/01 03:27:26;;;;;;;5.25;2.92;;;12.50;99.60;;;;;;4978522;28;20551;-64
2022/01/01 03:29:52;;;;;;;3.15;2.70;;;12.40;99.70;;;;;;4980015;28;20037;-63
2022/01/01 03:32:17;;;;;;;3.67;2.65;;;12.40;99.70;;;;;;4977396;28;21434;-64
2022/01/01 03:34:43;;;;;;;5.63;2.95;;;12.40;99.70;;;;;;4978319;28;20045;-64
2022/01/01 03:37:09;;;;;;;4.38;3.05;;;12.40;99.80;;;;;;4977234;28;20038;-64
2022/01/01 03:39:35;;;;;;;3.22;2.72;;;12.40;99.90;;;;;;4981055;28;20043;-64
2022/01/01 03:42:00;;;;;;;3.60;3.10;;;12.30;99.90;;;;;;4975675;28;20097;-64
2022/01/01 03:44:26;;;;;;;3.85;2.45;;;12.30;99.90;;;;;;4976897;28;20030;-64
2022/01/01 03:46:58;;;;;;;4.40;3.20;;;12.40;99.90;;;;;;4974473;28;20114;-64
2022/01/01 03:49:27;;;;;;;4.43;2.97;;;12.30;99.90;;;;;;4976933;28;20428;-64
2022/01/01 03:51:52;;;;;;;3.63;2.78;;;12.30;99.90;;;;;;4980004;28;20068;-64
2022/01/01 03:54:20;;;;;;;7.50;3.10;;;12.30;99.90;;;;;;4978502;28;20109;-64
2022/01/01 03:56:45;;;;;;;4.80;2.88;;;12.30;99.90;;;;;;4973859;28;20026;-64
2022/01/01 03:59:11;;;;;;;4.25;2.72;;;12.20;99.90;;;;;;4976222;28;20468;-64
2022/01/01 04:01:37;;;;;;;4.43;2.85;;;12.20;99.90;;;;;;4978313;28;20030;-64
2022/01/01 04:04:02;;;;;;;3.22;2.80;;;12.20;99.90;;;;;;4978048;28;20034;-64
2022/01/01 04:06:31;;;;;;;5.10;3.55;;;12.20;99.90;;;;;;4976274;28;20030;-65
2022/01/01 04:08:57;;;;;;;4.32;3.28;;;12.20;99.90;;;;;;4978694;28;20082;-65
2022/01/01 04:11:22;;;;;;;4.13;3.13;;;12.20;99.90;;;;;;4976653;28;20069;-64
2022/01/01 04:13:48;;;;;;;3.58;3.15;;;12.10;99.90;;;;;;4981242;28;20097;-65
2022/01/01 04:16:16;;;;;;;3.30;3.00;;;12.10;99.90;;;;;;4976343;28;20062;-64
2022/01/01 04:18:42;;;;;;;4.90;3.20;;;12.10;99.90;;;;;;4979156;28;20056;-65
2022/01/01 04:21:09;;;;;;;4.75;2.72;;;12.10;99.90;;;;;;4979769;28;20034;-65
2022/01/01 04:23:36;;;;;;;3.22;2.60;;;12.10;99.90;;;;;;4978127;28;20023;-65
2022/01/01 04:26:02;;;;;;;3.85;2.97;;;12.00;99.90;;;;;;4972764;28;20058;-64
2022/01/01 04:28:28;;;;;;;3.30;2.88;;;11.90;99.90;;;;;;4974552;28;20117;-64
2022/01/01 04:30:53;;;;;;;5.03;3.10;;;11.90;99.90;;;;;;4980915;28;20113;-64
2022/01/01 04:33:19;;;;;;;4.57;3.10;;;11.90;99.90;;;;;;4978298;28;20134;-64
2022/01/01 04:35:47;;;;;;;3.00;2.70;;;12.00;99.90;;;;;;4980420;28;20362;-65
2022/01/01 04:41:16;;;;;;;3.40;2.70;;;12.00;99.90;;;;;;4924153;29;20694;-64
2022/01/01 04:43:43;;;;;;;4.07;2.63;;;12.00;99.90;;;;;;4969317;28;20129;-64
2022/01/01 04:46:10;;;;;;;3.42;3.00;;;12.00;99.90;;;;;;4978485;28;20030;-64
2022/01/01 04:48:37;;;;;;;3.85;2.45;;;12.00;99.90;;;;;;4976402;28;20073;-65
2022/01/01 04:51:10;;;;;;;4.60;2.67;;;12.00;99.90;;;;;;4980735;28;20042;-64
2022/01/01 04:53:36;;;;;;;4.65;2.45;;;12.10;99.90;;;;;;4976873;28;20035;-64
2022/01/01 04:56:06;;;;;;;4.38;2.90;;;12.10;99.90;;;;;;4972220;28;20035;-64
2022/01/01 04:58:32;;;;;;;2.85;2.47;;;12.10;99.90;;;;;;4980465;28;20038;-64
2022/01/01 05:00:57;;;;;;;3.10;2.25;;;12.10;99.90;;;;;;4980906;28;20555;-64
2022/01/01 05:03:23;;;;;;;2.75;2.42;;;12.10;99.90;;;;;;4977872;28;20069;-63
2022/01/01 05:05:49;;;;;;;3.22;2.50;;;12.10;99.90;;;;;;4983573;28;20050;-64
2022/01/01 05:08:14;;;;;;;6.25;2.58;;;12.10;99.90;;;;;;4977755;28;20092;-64
2022/01/01 05:10:40;;;;;;;2.88;2.28;;;12.10;99.90;;;;;;4982449;28;20108;-64
2022/01/01 05:13:06;;;;;;;3.65;2.33;;;12.10;99.90;;;;;;4977334;28;20547;-63
2022/01/01 05:15:32;;;;;;;3.50;2.55;;;12.10;99.90;;;;;;4974189;28;20688;-63
2022/01/01 05:17:57;;;;;;;3.50;2.17;;;12.10;99.90;;;;;;4973341;28;20035;-64
2022/01/01 05:20:23;;;;;;;5.22;2.15;;;12.10;99.90;;;;;;4972471;28;20121;-65
2022/01/01 05:22:49;;;;;;;2.15;1.95;;;12.20;99.90;;;;;;4973972;28;20624;-65
2022/01/01 05:25:14;;;;;;;3.33;2.30;;;12.20;99.90;;;;;;4979512;28;20113;-65
2022/01/01 05:27:40;;;;;;;3.13;2.30;;;12.20;99.90;;;;;;4979183;28;20061;-64
2022/01/01 05:30:07;;;;;;;2.60;2.20;;;12.20;99.90;;;;;;4980258;28;20034;-64
2022/01/01 05:32:33;;;;;;;2.88;1.80;;;12.20;99.90;;;;;;4981719;28;20491;-64
2022/01/01 05:34:58;;;;;;;2.90;2.20;;;12.20;99.90;;;;;;4974737;28;20103;-64
2022/01/01 05:37:24;;;;;;;3.63;2.40;;;12.20;99.90;;;;;;4974270;28;20508;-64
2022/01/01 05:39:50;;;;;;;3.53;2.53;;;12.20;99.90;;;;;;4980440;28;20038;-64
2022/01/01 05:42:15;;;;;;;4.03;2.50;;;12.20;99.90;;;;;;4978096;28;20501;-64
2022/01/01 05:44:41;;;;;;;2.70;2.35;;;12.20;99.90;;;;;;4978081;28;20659;-63
2022/01/01 05:47:07;;;;;;;2.88;2.28;;;12.20;99.90;;;;;;4973571;28;20058;-64
2022/01/01 05:49:32;;;;;;;3.30;1.95;;;12.20;99.90;;;;;;4978714;28;20059;-64
2022/01/01 05:51:58;;;;;;;3.72;2.50;;;12.20;99.90;;;;;;4980945;28;20034;-64
2022/01/01 05:54:24;;;;;;;2.83;2.22;;;12.30;99.90;;;;;;4980201;28;20034;-64
2022/01/01 05:56:49;;;;;;;3.20;2.13;;;12.30;99.90;;;;;;4980869;28;20118;-64
2022/01/01 05:59:15;;;;;;;3.38;2.35;;;12.30;99.90;;;;;;4982886;28;20089;-64
2022/01/01 06:01:41;;;;;;;2.90;2.20;;;12.30;99.90;;;;;;4982531;28;20042;-64
2022/01/01 06:04:06;;;;;;;3.03;2.03;;;12.20;99.90;;;;;;4982722;28;20105;-64
2022/01/01 06:06:32;;;;;;;4.18;2.45;;;12.30;99.90;;;;;;4981463;28;20674;-64
2022/01/01 06:08:58;;;;;;;3.17;2.38;;;12.30;99.90;;;;;;4981834;28;20038;-64
2022/01/01 06:11:26;;;;;;;2.85;2.50;;;12.30;99.90;;;;;;4980487;28;20034;-63
2022/01/01 06:13:52;;;;;;;3.78;2.83;;;12.30;99.90;;;;;;4980932;28;20169;-64
2022/01/01 06:16:20;;;;;;;4.55;2.88;;;12.30;99.90;;;;;;4982477;28;20416;-64
2022/01/01 06:18:46;;;;;;;3.10;1.80;;;12.30;99.90;;;;;;4979822;28;20039;-64
2022/01/01 06:21:12;;;;;;;4.05;2.15;;;12.20;99.90;;;;;;4980510;28;20042;-63
2022/01/01 06:23:39;;;;;;;4.15;3.08;;;12.10;99.90;;;;;;4980774;28;20039;-65
2022/01/01 06:26:05;;;;;;;3.03;2.00;;;12.20;99.90;;;;;;4980705;28;20217;-64
2022/01/01 06:28:31;;;;;;;2.33;1.92;;;12.20;99.90;;;;;;4979955;28;20038;-64
2022/01/01 06:30:57;;;;;;;3.28;1.90;;;12.20;99.90;;;;;;4981902;28;20085;-64
2022/01/01 06:33:22;;;;;;;3.38;1.70;;;12.20;99.90;;;;;;4980566;28;20027;-64
2022/01/01 06:35:51;;;;;;;3.13;1.70;;;12.20;99.90;;;;;;4981673;28;20428;-64
2022/01/01 06:38:17;;;;;;;4.85;2.15;;;12.30;99.90;;;;;;4982197;28;20108;-64
2022/01/01 06:40:44;;;;;;;3.65;2.03;;;12.20;99.90;;;;;;4978298;28;20808;-64
2022/01/01 06:43:12;;;;;;;3.25;1.58;;;12.30;99.90;;;;;;4980497;28;20029;-64
2022/01/01 06:45:38;;;;;;;2.72;2.00;;;12.20;99.90;;;;;;4980186;28;21167;-64
2022/01/01 06:48:04;;;;;;;2.35;1.95;;;12.20;99.90;;;;;;4980073;28;20046;-63
2022/01/01 06:50:30;;;;;;;3.38;1.70;;;12.20;99.90;;;;;;4981333;28;20409;-64
2022/01/01 06:52:55;;;;;;;2.17;1.63;;;12.20;99.90;;;;;;4978416;28;20753;-64
2022/01/01 06:55:21;;;;;;;1.92;1.50;;;12.20;99.90;;;;;;4982484;28;20030;-64
2022/01/01 06:57:47;;;;;;;1.98;1.58;;;12.20;99.90;;;;;;4978811;28;20043;-64
2022/01/01 07:00:14;;;;;;;2.08;1.63;;;12.20;99.90;;;;;;4982862;28;20508;-63
2022/01/01 07:02:45;;;;;;;2.30;1.75;;;12.20;99.90;;;;;;4979482;28;20084;-63
2022/01/01 07:05:11;;;;;;;4.63;3.00;;;12.20;99.90;;;;;;4978895;28;20080;-64
2022/01/01 07:07:37;;;;;;;3.17;2.88;;;12.20;99.90;;;;;;4979509;28;20034;-63
2022/01/01 07:10:05;;;;;;;2.95;1.65;;;12.20;99.90;;;;;;4981829;28;20026;-64
2022/01/01 07:12:31;;;;;;;1.75;1.60;;;12.30;99.90;;;;;;4985324;28;20023;-64
2022/01/01 07:14:56;;;;;;;2.83;2.00;;;12.30;99.90;;;;;;4983341;28;20556;-64
2022/01/01 07:17:22;;;;;;;2.45;1.92;;;12.30;99.90;;;;;;4981292;28;20027;-64
2022/01/01 07:19:48;;;;;;;2.85;1.83;;;12.40;99.90;;;;;;4977822;28;20114;-63
2022/01/01 07:22:13;;;;;;;2.97;1.80;;;12.50;99.90;;;;;;4981613;28;20023;-64
2022/01/01 07:24:39;;;;;;;1.60;1.45;;;12.50;99.90;;;;;;4981029;28;20084;-64
2022/01/01 07:27:05;;;;;;;1.85;1.75;;;12.60;99.90;;;;;;4980681;28;20022;-64
2022/01/01 07:29:31;;;;;;;2.55;1.70;;;12.60;99.90;;;;;;4975604;28;20562;-64
2022/01/01 07:31:57;;;;;;;2.17;1.30;;;12.60;99.90;;;;;;4975296;28;20425;-64
2022/01/01 07:34:23;;;;;;;2.08;1.45;;;12.60;99.90;;;;;;4978862;28;20030;-64
2022/01/01 07:36:49;;;;;;;4.28;3.88;;;12.60;99.90;;;;;;4980010;28;20058;-62
2022/01/01 07:39:15;;;;;;;2.45;1.85;;;12.50;99.90;;;;;;4981424;28;20116;-64
2022/01/01 07:41:42;;;;;;;3.47;1.83;;;12.50;99.90;;;;;;4980203;28;20029;-64
2022/01/01 07:44:09;;;;;;;1.65;1.23;;;12.50;99.80;;;;;;4980127;28;20615;-63
2022/01/01 07:46:35;;;;;;;2.15;1.38;;;12.50;99.70;;;;;;4982359;28;20022;-63
2022/01/01 07:49:00;;;;;;;1.83;1.45;;;12.60;99.70;;;;;;4985721;28;20038;-63
2022/01/01 07:51:26;;;;;;;1.92;1.50;;;12.70;99.60;;;;;;4978827;28;20468;-63
2022/01/01 07:53:52;;;;;;;1.95;1.40;;;12.80;99.40;;;;;;4979466;28;20456;-63
2022/01/01 07:56:17;;;;;;;1.40;1.10;;;12.90;99.00;;;;;;4975104;28;20401;-61
2022/01/01 07:58:43;;;;;;;1.73;1.55;;;13.00;98.90;;;;;;4978924;28;20033;-62
2022/01/01 08:01:09;;;;;;;3.20;1.48;;;13.10;99.00;;;;;;4980390;28;20448;-63
2022/01/01 08:03:34;;;;;;;2.10;1.30;;;13.10;98.70;;;;;;4980113;28;20544;-63
2022/01/01 08:06:00;;;;;;;1.95;1.33;;;13.20;98.50;;;;;;4977299;28;20700;-63
2022/01/01 08:08:26;;;;;;;2.00;1.35;;;13.20;98.30;;;;;;4976884;28;20038;-63
2022/01/01 08:10:51;;;;;;;2.20;1.33;;;13.30;98.20;;;;;;4975541;28;20034;-63
2022/01/01 08:13:24;;;;;;;2.50;1.15;;;13.40;97.90;;;;;;4976936;28;20382;-63
2022/01/01 08:15:52;;;;;;;1.20;1.10;;;13.50;97.70;;;;;;4980164;28;20112;-65
2022/01/01 08:18:18;;;;;;;1.20;1.10;;;13.60;97.60;;;;;;4981561;28;20117;-64
2022/01/01 08:20:44;;;;;;;2.30;2.10;;;13.70;97.40;;;;;;4975524;28;20035;-63
2022/01/01 08:23:11;;;;;;;1.50;1.10;;;13.80;97.30;;;;;;4982122;28;20046;-64
2022/01/01 08:25:36;;;;;;;1.23;1.10;;;13.90;97.10;;;;;;4977327;28;20026;-64
2022/01/01 08:28:03;;;;;;;2.67;1.67;;;13.80;96.80;;;;;;4980312;28;20052;-63
2022/01/01 08:30:29;;;;;;;1.08;0.98;;;13.70;97.10;;;;;;4980299;28;20034;-64
2022/01/01 08:33:01;;;;;;;1.50;1.15;;;13.60;97.30;;;;;;4978929;28;20676;-64
2022/01/01 08:35:30;;;;;;;;;;;13.70;97.10;;;;;;4978947;28;20504;-64
2022/01/01 08:37:56;;;;;;;2.13;1.92;;;13.70;96.80;;;;;;4981475;28;19931;-64
2022/01/01 08:40:23;;;;;;;4.25;1.30;;;13.80;97.10;;;;;;4977988;28;20031;-64
2022/01/01 08:42:49;;;;;;;2.53;1.77;;;13.80;96.60;;;;;;4978924;28;20038;-64
2022/01/01 08:45:14;;;;;;;4.45;2.22;;;13.80;96.80;;;;;;4976951;28;20034;-64
2022/01/01 08:47:40;;;;;;;1.35;1.25;;;13.90;96.80;;;;;;4976636;28;20054;-64
2022/01/01 08:50:07;;;;;;;2.03;1.15;;;14.00;96.40;;;;;;4978775;28;20062;-62
2022/01/01 08:52:32;;;;;;;1.88;1.30;;;13.80;96.30;;;;;;4975948;28;20481;-63
2022/01/01 08:54:59;;;;;;;1.17;1.08;;;13.80;96.60;;;;;;4970530;28;20050;-64
2022/01/01 08:57:26;;;;;;;1.35;1.23;;;13.80;96.50;;;;;;4979619;28;20714;-65
2022/01/01 08:59:53;;;;;;;1.58;1.48;;;13.80;96.30;;;;;;4980403;28;20101;-65
2022/01/01 09:02:19;;;;;;;1.50;1.35;;;13.70;96.70;;;;;;4973562;28;24649;-65
2022/01/01 09:04:45;;;;;;;1.30;1.15;;;13.80;96.80;;;;;;4977214;28;20030;-65
2022/01/01 09:07:12;;;;;;;2.13;1.20;;;13.80;96.50;;;;;;4972054;28;20109;-64
2022/01/01 09:09:40;;;;;;;1.50;1.27;;;13.80;96.80;;;;;;4978664;28;20054;-64
2022/01/01 09:12:08;;;;;;;1.40;1.30;;;13.70;96.80;;;;;;4977162;28;20377;-65
2022/01/01 09:14:38;;;;;;;2.72;1.40;;;13.60;96.60;;;;;;4978283;28;20042;-65
2022/01/01 09:17:07;;;;;;;1.63;1.20;;;13.60;96.90;;;;;;4979270;28;20563;-65
2022/01/01 09:19:32;;;;;;;3.90;1.42;;;13.60;96.70;;;;;;4976436;28;20136;-65
2022/01/01 09:21:58;;;;;;;2.28;1.50;;;13.50;96.90;;;;;;4979494;28;21928;-65
2022/01/01 09:24:24;;;;;;;2.22;2.03;;;13.50;97.00;;;;;;4977066;28;20602;-65
2022/01/01 09:26:50;;;;;;;2.65;1.60;;;13.50;97.00;;;;;;4974981;28;20033;-65
2022/01/01 09:29:15;;;;;;;2.05;1.83;;;13.50;96.90;;;;;;4981373;28;20165;-65
2022/01/01 09:31:42;;;;;;;2.10;1.40;;;13.50;96.70;;;;;;4974158;28;20070;-65
2022/01/01 09:34:08;;;;;;;2.38;2.17;;;13.60;96.90;;;;;;4977106;28;20035;-65
2022/01/01 09:36:34;;;;;;;2.03;1.40;;;13.60;96.80;;;;;;4979262;28;20034;-65
2022/01/01 09:39:00;;;;;;;1.52;1.40;;;13.60;96.60;;;;;;4974885;28;20031;-66
2022/01/01 09:41:26;;;;;;;2.15;1.45;;;13.70;96.70;;;;;;4976817;28;20096;-66
2022/01/01 09:43:56;;;;;;;2.35;1.77;;;13.60;96.70;;;;;;4976931;28;20034;-65
2022/01/01 09:46:23;;;;;;;1.42;1.33;;;13.60;96.70;;;;;;4971257;28;20062;-65
2022/01/01 09:48:50;;;;;;;2.85;1.38;;;13.60;96.60;;;;;;4974699;28;20086;-65
2022/01/01 09:51:16;;;;;;;1.88;1.60;;;13.60;96.70;;;;;;4976228;28;20047;-65
2022/01/01 09:53:45;;;;;;;1.88;1.63;;;13.60;96.40;;;;;;4978081;28;20046;-66
2022/01/01 09:56:11;;;;;;;2.10;1.75;;;13.60;96.50;;;;;;4980730;28;20038;-66
2022/01/01 09:58:38;;;;;;;3.83;1.30;;;13.60;96.50;;;;;;4972327;28;20066;-67
2022/01/01 10:01:06;;;;;;;2.33;1.77;;;13.70;96.30;;;;;;4979182;28;20509;-66
2022/01/01 10:03:44;;;;;;;3.55;2.20;;;13.70;96.80;;;;;;4976804;28;20034;-66
2022/01/01 10:06:15;;;;;;;1.58;1.33;;;13.70;96.60;;;;;;4969904;28;20489;-65
2022/01/01 10:08:48;;;;;;;2.50;1.30;;;13.80;96.50;;;;;;4967162;28;20066;-65
2022/01/01 10:11:18;;;;;;;2.20;1.95;;;13.80;96.30;;;;;;4971489;28;20034;-65
2022/01/01 10:13:44;;;;;;;1.85;1.42;;;13.90;96.60;;;;;;4971844;28;20023;-66
2022/01/01 10:16:11;;;;;;;1.80;1.60;;;13.90;96.10;;;;;;4968823;28;20694;-66
2022/01/01 10:18:42;;;;;;;2.35;1.77;;;13.90;95.80;;;;;;4966975;28;20081;-66
2022/01/01 10:21:11;;;;;;;1.73;1.63;;;13.90;96.10;;;;;;4971465;28;20515;-66
2022/01/01 10:23:39;;;;;;;3.78;1.80;;;13.90;96.20;;;;;;4970961;28;20051;-65
2022/01/01 10:29:23;;;;;;;1.95;1.35;;;14.00;96.00;;;;;;4975815;28;20050;-65
2022/01/01 10:32:12;;;;;;;2.25;1.60;;;14.00;96.00;;;;;;4971071;28;20034;-65
2022/01/01 10:34:43;;;;;;;2.92;1.30;;;14.00;95.70;;;;;;4965740;28;20047;-67
2022/01/01 10:37:11;;;;;;;2.20;1.77;;;14.00;95.80;;;;;;4970643;28;20035;-66
2022/01/01 10:39:58;;;;;;;3.05;1.67;;;14.00;96.10;;;;;;4971509;28;20146;-66
2022/01/01 10:42:24;;;;;;;1.65;1.55;;;14.10;96.10;;;;;;4971180;28;21781;-66
2022/01/01 10:44:53;;;;;;;2.28;1.30;;;14.10;95.80;;;;;;4976211;28;20039;-66
2022/01/01 10:47:31;;;;;;;2.42;1.70;;;14.10;95.90;;;;;;4970849;28;20544;-66
2022/01/01 10:50:14;;;;;;;2.25;1.42;;;14.10;96.10;;;;;;4977977;28;20718;-66
2022/01/01 10:52:47;;;;;;;2.63;1.63;;;14.00;95.80;;;;;;4974701;28;21094;-63
2022/01/01 10:55:15;;;;;;;2.13;1.50;;;13.90;95.90;;;;;;4970529;28;20110;-65
2022/01/01 10:57:51;;;;;;;2.03;1.45;;;13.80;96.40;;;;;;4972954;28;20048;-66
2022/01/01 11:00:26;;;;;;;1.88;1.52;;;13.80;96.20;;;;;;4974841;28;20057;-66
2022/01/01 11:02:56;;;;;;;2.58;1.30;;;13.70;96.90;;;;;;4969497;28;20068;-66
2022/01/01 11:05:33;;;;;;;1.98;1.70;;;13.70;96.90;;;;;;4976751;28;20633;-66
2022/01/01 11:07:59;;;;;;;2.55;1.50;;;13.70;97.10;;;;;;4974626;28;20689;-67
2022/01/01 11:10:27;;;;;;;2.50;1.65;;;13.60;97.30;;;;;;4979966;28;20643;-66
2022/01/01 11:12:53;;;;;;;2.70;1.50;;;13.60;97.50;;;;;;4978871;28;20132;-66
2022/01/01 11:15:20;;;;;;;1.83;1.48;;;13.50;98.00;;;;;;4984346;28;20026;-66
2022/01/01 11:17:47;;;;;;;1.40;1.20;;;13.50;98.00;;;;;;4982022;28;20037;-65
2022/01/01 11:20:13;;;;;;;2.38;1.60;;;13.40;98.80;;;;;;4983890;28;20022;-66
2022/01/01 11:22:39;;;;;;;3.65;1.95;;;13.40;98.10;;;;;;4978990;28;20117;-65
2022/01/01 11:25:05;;;;;;;2.97;1.40;;;13.40;98.70;;;;;;4983058;28;20617;-66
2022/01/01 11:27:34;;;;;;;4.47;1.70;;;13.40;99.00;;;;;;4981864;28;20529;-65
2022/01/01 11:30:04;;;;;;;1.77;1.55;;;13.40;98.80;;;;;;4977351;28;20046;-64
2022/01/01 11:32:38;;;;;;;2.03;1.77;;;13.40;98.90;;;;;;4962362;28;20074;-65
2022/01/01 11:35:08;;;;;;;2.10;1.50;;;13.40;99.00;;;;;;4963179;28;20046;-65
2022/01/01 11:37:56;;;;;;;1.60;1.30;;;13.40;98.60;;;;;;4968475;28;20086;-64
2022/01/01 11:40:22;;;;;;;3.08;1.30;;;13.40;97.90;;;;;;4961247;28;20070;-66
2022/01/01 11:42:48;;;;;;;1.38;1.13;;;13.50;97.60;;;;;;4971822;28;20129;-65
2022/01/01 11:45:41;;;;;;;2.17;1.30;;;13.50;97.60;;;;;;4976185;28;20050;-65
2022/01/01 11:48:28;;;;;;;1.90;1.30;;;13.60;97.80;;;;;;4970608;28;20065;-64
2022/01/01 11:50:54;;;;;;;1.23;1.10;;;13.60;97.60;;;;;;4975052;28;20054;-65
2022/01/01 11:53:31;;;;;;;1.50;1.17;;;13.60;97.20;;;;;;4970475;28;20084;-65
2022/01/01 11:56:13;;;;;;;1.65;1.45;;;13.70;97.10;;;;;;4973445;28;20027;-66
2022/01/01 11:58:51;;;;;;;2.50;1.30;;;13.70;97.20;;;;;;4974288;28;20102;-66
2022/01/01 12:01:19;;;;;;;2.72;1.38;;;13.70;97.40;;;;;;4980904;28;20569;-66
2022/01/01 12:03:49;;;;;;;1.65;1.42;;;13.70;97.60;;;;;;4978723;28;20027;-66
2022/01/01 12:06:15;;;;;;;1.40;1.30;;;13.70;97.60;;;;;;4977849;28;20612;-66
2022/01/01 12:08:44;;;;;;;1.50;1.23;;;13.70;97.70;;;;;;4979117;28;20048;-67
2022/01/01 12:11:29;;;;;;;2.20;1.33;;;13.70;97.70;;;;;;4975657;28;20042;-66
2022/01/01 12:13:56;;;;;;;1.85;1.25;;;13.70;98.00;;;;;;4980286;28;20027;-66
2022/01/01 12:16:22;;;;;;;2.38;1.20;;;13.70;97.40;;;;;;4980967;28;20037;-67
2022/01/01 12:18:48;;;;;;;1.80;1.20;;;13.70;97.20;;;;;;4980542;28;20054;-66
2022/01/01 12:21:24;;;;;;;1.75;1.60;;;13.70;97.00;;;;;;4980416;28;20109;-66
2022/01/01 12:23:54;;;;;;;1.60;1.00;;;13.70;97.10;;;;;;4978874;28;20054;-66
2022/01/01 12:26:34;;;;;;;2.20;1.40;;;13.70;96.90;;;;;;4977501;28;20035;-67
2022/01/01 12:29:07;;;;;;;2.72;1.35;;;13.70;96.90;;;;;;4976766;28;20653;-66
2022/01/01 12:31:33;;;;;;;1.25;1.15;;;13.80;97.00;;;;;;4977340;28;20054;-67
2022/01/01 12:34:09;;;;;;;2.33;1.40;;;13.70;96.80;;;;;;4980440;28;20485;-66
2022/01/01 12:36:36;;;;;;;2.05;1.27;;;13.70;97.00;;;;;;4976143;28;20031;-66
2022/01/01 12:39:07;;;;;;;1.88;1.30;;;13.70;97.20;;;;;;4965286;28;20046;-66
2022/01/01 12:41:39;;;;;;;1.48;1.17;;;13.70;97.30;;;;;;4968996;28;20050;-66
2022/01/01 12:44:31;;;;;;;3.60;1.13;;;13.70;97.30;;;;;;4973350;28;20501;-66
2022/01/01 12:47:01;;;;;;;1.85;1.30;;;13.60;97.30;;;;;;4975266;28;20691;-65
2022/01/01 12:49:27;;;;;;;2.25;1.15;;;13.60;97.40;;;;;;4974706;28;20069;-65
2022/01/01 12:51:56;;;;;;;1.30;1.20;;;13.60;97.10;;;;;;4974744;28;20046;-65
2022/01/01 12:54:26;;;;;;;4.72;1.42;;;13.60;97.40;;;;;;4971015;28;20042;-65
2022/01/01 12:56:53;;;;;;;1.45;1.30;;;13.60;97.20;;;;;;4972220;28;20053;-66
2022/01/01 12:59:19;;;;;;;2.38;1.20;;;13.60;97.30;;;;;;4970088;28;20068;-66
2022/01/01 13:01:47;;;;;;;2.20;1.10;;;13.60;97.40;;;;;;4965218;28;20053;-65